createdAt,value
2019-02-05T00:01:09.000Z,23.04
2019-02-05T00:11:09.000Z,22.96
2019-02-05T00:21:09.000Z,22.91
2019-02-05T00:31:09.000Z,22.87
2019-02-05T00:41:09.000Z,22.81
2019-02-05T00:51:09.000Z,22.76
2019-02-05T01:01:09.000Z,22.68
2019-02-05T01:11:09.000Z,22.61
2019-02-05T01:21:09.000Z,22.56
2019-02-05T01:31:10.000Z,22.49
2019-02-05T01:41:10.000Z,22.45
2019-02-05T01:51:10.000Z,22.37
2019-02-05T02:01:10.000Z,22.3
2019-02-05T02:11:10.000Z,22.26
2019-02-05T02:21:10.000Z,22.2
2019-02-05T02:31:10.000Z,22.14
2019-02-05T02:41:10.000Z,22.08
2019-02-05T02:51:11.000Z,22.02
2019-02-05T03:01:10.000Z,21.95
2019-02-05T03:11:10.000Z,21.89
2019-02-05T03:21:12.000Z,21.83
2019-02-05T03:31:10.000Z,21.77
2019-02-05T03:41:12.000Z,21.73
2019-02-05T03:51:10.000Z,21.66
2019-02-05T04:01:10.000Z,21.61
2019-02-05T04:11:10.000Z,21.57
2019-02-05T04:31:10.000Z,21.47
2019-02-05T04:41:10.000Z,21.42
2019-02-05T04:51:10.000Z,21.36
2019-02-05T05:01:10.000Z,21.3
2019-02-05T05:11:10.000Z,21.23
2019-02-05T05:21:10.000Z,21.18
2019-02-05T05:31:10.000Z,21.13
2019-02-05T05:41:10.000Z,21.08
2019-02-05T05:51:10.000Z,21.04
2019-02-05T06:01:10.000Z,21.02
2019-02-05T06:11:10.000Z,20.96
2019-02-05T06:21:10.000Z,20.93
2019-02-05T06:31:10.000Z,20.9
2019-02-05T06:41:10.000Z,20.87
2019-02-05T06:51:10.000Z,20.86
2019-02-05T07:01:10.000Z,20.81
2019-02-05T07:11:10.000Z,20.72
2019-02-05T07:21:10.000Z,20.65
2019-02-05T07:31:10.000Z,20.73
2019-02-05T07:41:10.000Z,20.72
2019-02-05T07:51:10.000Z,20.7
2019-02-05T08:01:10.000Z,20.67
2019-02-05T08:11:10.000Z,20.65
2019-02-05T08:21:10.000Z,20.63
2019-02-05T08:31:10.000Z,20.61
2019-02-05T08:41:10.000Z,20.6
2019-02-05T08:51:10.000Z,20.59
2019-02-05T09:01:10.000Z,20.58
2019-02-05T09:11:11.000Z,20.5
2019-02-05T09:21:10.000Z,20.49
2019-02-05T09:31:10.000Z,20.47
2019-02-05T09:41:10.000Z,20.45
2019-02-05T09:51:10.000Z,20.49
2019-02-05T10:01:11.000Z,20.46
2019-02-05T10:11:11.000Z,20.35
2019-02-05T10:21:11.000Z,20.36
2019-02-05T10:31:11.000Z,20.33
2019-02-05T10:41:11.000Z,20.43
2019-02-05T10:51:11.000Z,20.34
2019-02-05T11:01:11.000Z,20.25
2019-02-05T11:11:11.000Z,20.24
2019-02-05T11:21:11.000Z,20.21
2019-02-05T11:31:11.000Z,20.17
2019-02-05T11:41:11.000Z,20.14
2019-02-05T11:51:11.000Z,20.11
2019-02-05T12:01:11.000Z,20.09
2019-02-05T12:11:11.000Z,20.07
2019-02-05T12:21:11.000Z,20.05
2019-02-05T12:31:11.000Z,20.02
2019-02-05T12:41:11.000Z,20
2019-02-05T12:51:11.000Z,19.99
2019-02-05T13:01:11.000Z,19.97
2019-02-05T13:11:11.000Z,19.94
2019-02-05T13:21:11.000Z,19.94
2019-02-05T13:31:11.000Z,19.91
2019-02-05T13:41:11.000Z,19.89
2019-02-05T13:51:11.000Z,19.86
2019-02-05T14:01:11.000Z,19.85
2019-02-05T14:11:11.000Z,19.83
2019-02-05T14:21:11.000Z,19.8
2019-02-05T14:31:11.000Z,19.79
2019-02-05T14:41:12.000Z,19.77
2019-02-05T14:51:11.000Z,19.74
2019-02-05T15:01:11.000Z,19.75
2019-02-05T15:11:11.000Z,19.7
2019-02-05T15:21:11.000Z,19.69
2019-02-05T15:31:11.000Z,19.67
2019-02-05T15:41:11.000Z,19.65
2019-02-05T15:51:12.000Z,19.63
2019-02-05T16:01:11.000Z,19.6
2019-02-05T16:11:11.000Z,19.6
2019-02-05T16:21:11.000Z,19.58
2019-02-05T16:31:11.000Z,19.57
2019-02-05T16:41:11.000Z,19.54
2019-02-05T16:51:11.000Z,19.54
2019-02-05T17:01:11.000Z,19.53
2019-02-05T17:11:11.000Z,19.54
2019-02-05T17:21:11.000Z,19.58
2019-02-05T17:31:11.000Z,19.58
2019-02-05T17:41:11.000Z,19.57
2019-02-05T17:51:11.000Z,19.57
2019-02-05T18:01:11.000Z,19.58
2019-02-05T18:11:12.000Z,19.58
2019-02-05T18:21:11.000Z,19.57
2019-02-05T18:31:12.000Z,19.57
2019-02-05T18:41:12.000Z,19.56
2019-02-05T18:51:12.000Z,19.52
2019-02-05T19:01:12.000Z,19.5
2019-02-05T19:11:12.000Z,19.48
2019-02-05T19:21:12.000Z,19.44
2019-02-05T19:31:12.000Z,19.44
2019-02-05T19:41:12.000Z,19.41
2019-02-05T19:51:12.000Z,19.39
2019-02-05T20:01:12.000Z,19.38
2019-02-05T20:11:12.000Z,18.97
2019-02-05T20:21:12.000Z,19.05
2019-02-05T20:31:12.000Z,19.14
2019-02-05T20:51:12.000Z,19.27
2019-02-05T21:01:12.000Z,19.28
2019-02-05T21:11:12.000Z,19.27
2019-02-05T21:21:12.000Z,19.25
2019-02-05T21:31:12.000Z,19.26
2019-02-05T21:41:13.000Z,19.33
2019-02-05T21:51:14.000Z,19.33
2019-02-05T22:01:15.000Z,19.33
2019-02-05T22:11:12.000Z,19.35
2019-02-05T22:21:12.000Z,19.38
2019-02-05T22:31:12.000Z,19.29
2019-02-05T22:41:12.000Z,19.31
2019-02-05T22:51:12.000Z,19.29
2019-02-05T23:01:12.000Z,19.28
2019-02-05T23:11:12.000Z,19.25
2019-02-05T23:21:12.000Z,19.2
2019-02-05T23:31:12.000Z,19.16
2019-02-05T23:41:12.000Z,19.13
2019-02-05T23:51:13.000Z,19.1
